Kidlington, United Kingdom

4:59 AM BST on September 02, 2014 (GMT +0100)
Begbroke | Change Station
CLOSE
Current Station
Personal Weather Station
Location: Kidlington, OXFORDSHIRE
Elevation: 265 ft
Nearby Weather Stations

Elev 265 ft 51.82 °N, 1.32 °W | Updated 11 minutes ago

Partly Cloudy
Partly Cloudy
48.3 °F
Feels Like 48 °F
N
0.0
Wind Variable Wind from North
Gusts 0.0 mph

Today
High -- | Low -- °F
--% Chance of Precip.
Yesterday
High -- | Low -- °F
Precip. -- in
6:18 AM 7:50 PM
Waxing Crescent, 47% visible
Pressure 30.18 in
Visibility 6.2 miles
Clouds Few 400 ft
Windchill 48 °F
Dew Point 47 °F
Humidity 94%
Rainfall 0.00 in
Snow Depth Not available.
UV 0.0 out of 12
Pollen Not available.
Air Quality Not available.
Flu Activity Not available.
METAR EGVN 020350Z 20001KT 9999 FEW004 10/08 Q1022 BLU TEMPO SCT004 YLO1

More Conditions Fewer Conditions

Pressure 30.18 in
Visibility 6.2 miles
Clouds Few 400 ft
Windchill 48 °F
Dew Point 47 °F
Humidity 94%
Rainfall 0.00 in
Snow Depth Not available.
UV 0.0 out of 12
Pollen Not available.
Air Quality Not available.
Flu Activity Not available.
METAR EGVN 020350Z 20001KT 9999 FEW004 10/08 Q1022 BLU TEMPO SCT004 YLO1

More Conditions Fewer Conditions

10-Day Weather Forecast

Almanac

Astronomy

Sep. 02, 2014 Rise Set
Actual Time 6:18 AM BST 7:50 PM BST
Civil Twilight 5:43 AM BST 8:25 PM BST
Nautical Twilight 5:00 AM BST 9:08 PM BST
Astronomical Twilight 4:12 AM BST 9:55 PM BST
Moon 2:40 PM BST 11:38 PM BST
Length of Visible Light 14h 41m
Length of Day
13h 31m
Tomorrow will be 3m 53s shorter.
Waxing Crescent, 47% of the Moon is Illuminated
Sep 1
Waxing Crescent
Sep 2
First Quarter
Sep 8
Full
Sep 15
Last Quarter
Sep 24
New

Yesterday's Extremes

Country Highs Country Lows

Community

WunderPhotos

Upload Photos

1,749,557 photos uploaded!

WunderBlogs® & News

Nearby

Snow Depth

Not available.

Earthquake Activity

City Distance Mag. Time & Date
No recent earthquake activity has been reported nearby.
Minimum magnitude displayed is 2.5.

Coastal Water Temperatures

Place Temperature
No Stations Reporting

Nearby Weather Stations